createdAt,value
2019-04-07T14:47:42.474Z,17.90
2019-04-07T14:50:30.883Z,17.60
2019-04-07T14:53:26.513Z,17.60
2019-04-07T14:56:10.032Z,17.50
2019-04-07T14:58:58.894Z,17.70
2019-04-07T15:01:47.871Z,17.70
2019-04-07T15:04:18.193Z,17.70
2019-04-07T15:06:53.760Z,17.60
2019-04-07T15:09:32.392Z,17.70
2019-04-07T15:12:24.033Z,17.60
2019-04-07T15:14:52.622Z,17.50
2019-04-07T15:17:23.108Z,17.60
2019-04-07T15:19:53.569Z,17.70
2019-04-07T15:22:28.882Z,17.90
2019-04-07T15:24:57.005Z,18.00
2019-04-07T15:27:27.290Z,18.20
2019-04-07T15:29:57.812Z,18.20
2019-04-07T15:32:28.968Z,18.30
2019-04-07T15:35:00.113Z,18.20
2019-04-07T15:37:30.225Z,17.80
2019-04-07T15:40:02.682Z,17.60
2019-04-07T15:42:40.300Z,17.30
2019-04-07T15:45:04.905Z,17.20
2019-04-07T15:47:35.994Z,17.20
2019-04-07T15:50:08.489Z,17.10
2019-04-07T15:52:43.677Z,17.10
2019-04-07T15:55:13.486Z,17.00
2019-04-07T15:57:44.015Z,16.90
2019-04-07T16:00:15.345Z,16.80
2019-04-07T16:02:46.100Z,16.80
2019-04-07T16:05:16.183Z,16.70
2019-04-07T16:07:46.720Z,16.60
2019-04-07T16:10:21.232Z,16.50
2019-04-07T16:12:52.206Z,16.50
2019-04-07T16:15:23.189Z,16.30
2019-04-07T16:17:53.195Z,16.30
2019-04-07T16:20:26.278Z,16.20
2019-04-07T16:22:55.469Z,16.30
2019-04-07T16:25:30.703Z,16.30
2019-04-07T16:28:02.358Z,16.30
2019-04-07T16:30:32.806Z,16.40
2019-04-07T16:33:05.232Z,16.40
2019-04-07T16:35:34.954Z,16.50
2019-04-07T16:38:05.288Z,16.50
2019-04-07T16:40:35.232Z,16.60
2019-04-07T16:43:14.583Z,16.60
2019-04-07T16:45:40.025Z,16.60
2019-04-07T16:48:10.819Z,16.50
2019-04-07T16:50:41.771Z,16.40
2019-04-07T16:53:11.897Z,16.30
2019-04-07T16:55:46.605Z,16.10
2019-04-07T16:58:14.502Z,16.10
2019-04-07T17:00:47.481Z,16.00
2019-04-07T17:03:16.221Z,15.90
2019-04-07T17:05:46.353Z,15.90
2019-04-07T17:08:19.668Z,15.80
2019-04-07T17:10:48.619Z,15.80
2019-04-07T17:13:27.978Z,15.70
2019-04-07T17:15:51.982Z,15.60
2019-04-07T17:18:41.212Z,15.50
2019-04-07T17:21:14.005Z,15.50
2019-04-07T17:23:44.053Z,15.40
2019-04-07T17:26:14.252Z,15.30
2019-04-07T17:28:45.223Z,15.20
2019-04-07T17:31:15.720Z,15.10
2019-04-07T17:33:45.849Z,15.00
2019-04-07T17:36:20.116Z,14.90
2019-04-07T17:39:11.667Z,14.80
2019-04-07T17:41:41.740Z,14.70
2019-04-07T17:44:23.409Z,14.60
2019-04-07T17:47:11.647Z,14.50
2019-04-07T17:49:52.442Z,14.50
2019-04-07T17:52:48.293Z,14.30
2019-04-07T17:55:42.154Z,14.20
2019-04-07T17:58:22.201Z,14.00
2019-04-07T18:01:14.463Z,13.90
2019-04-07T18:04:13.966Z,13.80
2019-04-07T18:06:53.877Z,13.80
2019-04-07T18:09:35.795Z,13.70
2019-04-07T18:12:35.767Z,13.40
2019-04-07T18:15:25.192Z,13.30
2019-04-07T18:18:24.044Z,13.20
2019-04-07T18:21:02.402Z,13.10
2019-04-07T18:23:53.940Z,13.00
2019-04-07T18:26:41.571Z,12.90
2019-04-07T18:29:31.288Z,12.80
2019-04-07T18:32:36.252Z,12.80
2019-04-07T18:35:37.726Z,12.90
2019-04-07T18:38:21.797Z,12.90
2019-04-07T18:41:17.015Z,12.90
2019-04-07T18:44:15.197Z,13.00
2019-04-07T18:47:03.081Z,13.10
2019-04-07T18:49:55.033Z,13.10
2019-04-07T18:52:48.232Z,13.10
2019-04-07T18:55:38.994Z,13.10
2019-04-07T18:58:48.920Z,13.10
2019-04-07T19:01:46.909Z,13.00
2019-04-07T19:04:43.455Z,13.00
2019-04-07T19:07:24.688Z,12.90
2019-04-07T19:10:08.678Z,12.80
2019-04-07T19:12:49.523Z,12.80
2019-04-07T19:15:55.456Z,12.70
2019-04-07T19:18:36.597Z,12.70
2019-04-07T19:21:28.814Z,12.60
2019-04-07T19:24:18.390Z,12.50
2019-04-07T19:27:14.384Z,12.50
2019-04-07T19:29:55.349Z,12.40
2019-04-07T19:32:44.290Z,12.40
2019-04-07T19:35:41.915Z,12.40
2019-04-07T19:38:49.273Z,12.30
2019-04-07T19:41:48.874Z,12.30
2019-04-07T19:44:42.887Z,12.30
2019-04-07T19:47:22.717Z,12.30
2019-04-07T19:50:22.725Z,12.20
2019-04-07T19:53:14.304Z,12.20
2019-04-07T19:56:07.974Z,12.10
2019-04-07T19:58:59.835Z,12.00
2019-04-07T20:01:49.164Z,11.90
2019-04-07T20:04:51.031Z,11.90
2019-04-07T20:07:37.793Z,11.90
2019-04-07T20:10:38.692Z,11.80
2019-04-07T20:13:28.232Z,11.70
2019-04-07T20:16:16.403Z,11.80
2019-04-07T20:19:17.383Z,11.80
2019-04-07T20:21:56.871Z,11.80
2019-04-07T20:24:40.076Z,11.80
2019-04-07T20:27:26.063Z,11.80
2019-04-07T20:30:16.019Z,12.00
2019-04-07T20:33:00.715Z,12.10
2019-04-07T20:35:50.057Z,12.30
2019-04-07T20:38:42.224Z,12.30
2019-04-07T20:41:37.947Z,12.40
2019-04-07T20:44:32.543Z,12.50
2019-04-07T20:47:20.945Z,12.50
2019-04-07T20:50:14.331Z,12.40
2019-04-07T20:53:13.111Z,12.40
2019-04-07T20:55:51.961Z,12.30
2019-04-07T20:58:57.401Z,12.30
2019-04-07T21:01:58.706Z,12.20
2019-04-07T21:04:36.338Z,12.20
2019-04-07T21:07:25.393Z,12.20
2019-04-07T21:10:09.816Z,12.20
2019-04-07T21:12:58.206Z,12.20
2019-04-07T21:15:46.593Z,12.20
2019-04-07T21:18:39.135Z,12.20
2019-04-07T21:21:17.190Z,12.20
2019-04-07T21:24:05.746Z,12.20
2019-04-07T21:26:58.083Z,12.20
2019-04-07T21:29:34.465Z,12.20
2019-04-07T21:32:21.584Z,12.20
2019-04-07T21:35:13.723Z,12.30
2019-04-07T21:37:51.907Z,12.30
2019-04-07T21:40:42.284Z,12.40
2019-04-07T21:43:18.337Z,12.40
2019-04-07T21:46:06.696Z,12.40
2019-04-07T21:49:02.643Z,12.50
2019-04-07T21:51:48.371Z,12.50
2019-04-07T21:54:37.516Z,12.50
2019-04-07T21:57:21.408Z,12.50
2019-04-07T22:00:27.081Z,12.50
2019-04-07T22:03:16.830Z,12.50
2019-04-07T22:06:04.743Z,12.50
2019-04-07T22:08:43.963Z,12.50
2019-04-07T22:11:15.528Z,12.50
2019-04-07T22:13:45.615Z,12.50
2019-04-07T22:16:16.335Z,12.50
2019-04-07T22:18:47.052Z,12.60
2019-04-07T22:21:17.303Z,12.50
2019-04-07T22:23:47.108Z,12.60
2019-04-07T22:26:19.143Z,12.60
2019-04-07T22:28:48.495Z,12.60
2019-04-07T22:31:23.603Z,12.60
2019-04-07T22:33:56.856Z,12.60
2019-04-07T22:36:25.862Z,12.70
2019-04-07T22:38:58.740Z,12.60
2019-04-07T22:41:28.156Z,12.60
2019-04-07T22:43:58.185Z,12.70
2019-04-07T22:46:29.020Z,12.60
2019-04-07T22:48:59.638Z,12.60
2019-04-07T22:51:30.649Z,12.60
2019-04-07T22:54:01.493Z,12.60
2019-04-07T22:56:36.393Z,12.60
2019-04-07T22:59:04.222Z,12.50
2019-04-07T23:01:35.414Z,12.50
2019-04-07T23:04:05.628Z,12.40
2019-04-07T23:06:36.240Z,12.40
2019-04-07T23:09:07.883Z,12.40
2019-04-07T23:11:37.930Z,12.40
2019-04-07T23:14:07.865Z,12.50
2019-04-07T23:16:38.045Z,12.40
2019-04-07T23:19:08.834Z,12.50
2019-04-07T23:21:39.475Z,12.50
2019-04-07T23:24:10.851Z,12.40
2019-04-07T23:26:42.574Z,12.40
2019-04-07T23:29:12.608Z,12.50
2019-04-07T23:31:44.047Z,12.40
2019-04-07T23:34:14.733Z,12.40
2019-04-07T23:36:45.647Z,12.40
2019-04-07T23:39:15.654Z,12.50
2019-04-07T23:41:45.685Z,12.50
2019-04-07T23:44:16.085Z,12.40
2019-04-07T23:46:46.235Z,12.50
2019-04-07T23:49:16.066Z,12.50
2019-04-07T23:51:45.915Z,12.50
2019-04-07T23:54:16.430Z,12.50
2019-04-07T23:56:46.480Z,12.50
2019-04-07T23:59:16.788Z,12.50
